Kezdőlap
METAR-TAF:

METAR-TAF

Repülőterek :

Rabat, Marokkó

földrajzi szélesség: 34-03N, földrajzi hosszúság: 006-46W, magasság: 84 m

Jelenlegi meteorológiai megfigyelések

A jelentés 39 perccel ezelõtt készült, 03:30 UTC
Különbözõ irányokból fújó szél 8 kt
Hőmérséklet 20°C
Páratartalom 88%
Légköri nyomás 1017 hPa
Látótávolság 10 km, vagy több
Szórványos felhőzet 1000 lábon

METAR: GMME 190330Z VRB08KT 9999 SCT010 20/18 Q1017 NOSIG

Idő: 05:09 (04:09 UTC)

Előrejelzés

A jelentés 5 órával és 9 perccel ezelõtt készült, 23:00 UTC
Az előrejelzés 19-én 00 óra UTC és 20-én 06 óra UTC között érvényes
Észak-északnyugati szél 7 kt
Látótávolság: 6000 m
Szórványos felhőzet 600 lábon
Valószínűség 30% :
19-én 05 óra UTC és 19-én 09 óra UTC között ideiglenes
Látótávolság: 4000 m
Szakadozott felhőzet 600 lábon
Szórványos felhőzet 1500 lábon
Párásság

TAF: GMME 182300Z 1900/2006 33007KT 6000 SCT006 PROB30 TEMPO 1905/1909 4000 BR BKN006 SCT015

Meteorológiai megfigyelések és előrejelzések több, mint 4000 repülőtéren (METAR és TAF jelentéseket).

A térképen piros és sárga pontok jelzik az elérhető meteorológiai állomásokat.

Mozgassa az egeret a pont fölött, hogy megjelenjen az állomás neve.

Azután kattintson az időjárási megfigyelések és előrejelzések megtekintéséhez.

A térkép megváltoztatása: kattintson a fekete keresztel jelölt zöld gombra ráközelítéshez, a vonallal jelölt zöld gombra távolításhoz, vagy a zöld nyilakra a szomszédos térképek eléréséhez.


METAR-TAF: